sensor_id;sensor_type;location;lat;lon;timestamp;temperature;humidity
24518;DHT22;12678;51.336;12.406;2023-12-04T00:00:01;-1.70;99.90
24518;DHT22;12678;51.336;12.406;2023-12-04T00:02:28;-1.60;99.90
24518;DHT22;12678;51.336;12.406;2023-12-04T00:04:53;-1.60;99.90
24518;DHT22;12678;51.336;12.406;2023-12-04T00:07:19;-1.60;99.90
24518;DHT22;12678;51.336;12.406;2023-12-04T00:09:44;-1.60;99.90
24518;DHT22;12678;51.336;12.406;2023-12-04T00:12:10;-1.70;99.90
24518;DHT22;12678;51.336;12.406;2023-12-04T00:14:35;-1.80;99.90
24518;DHT22;12678;51.336;12.406;2023-12-04T00:17:01;-1.70;99.90
24518;DHT22;12678;51.336;12.406;2023-12-04T00:19:26;-1.70;99.90
24518;DHT22;12678;51.336;12.406;2023-12-04T00:21:52;-1.60;99.90
24518;DHT22;12678;51.336;12.406;2023-12-04T00:24:17;-1.70;99.90
24518;DHT22;12678;51.336;12.406;2023-12-04T00:26:43;-1.70;99.90
24518;DHT22;12678;51.336;12.406;2023-12-04T00:29:08;-1.70;99.90
24518;DHT22;12678;51.336;12.406;2023-12-04T00:31:34;-1.70;99.90
24518;DHT22;12678;51.336;12.406;2023-12-04T00:34:00;-1.70;99.90
24518;DHT22;12678;51.336;12.406;2023-12-04T00:36:25;-1.70;99.90
24518;DHT22;12678;51.336;12.406;2023-12-04T00:38:51;-1.80;99.90
24518;DHT22;12678;51.336;12.406;2023-12-04T00:41:16;-1.80;99.90
24518;DHT22;12678;51.336;12.406;2023-12-04T00:43:42;-1.70;99.90
24518;DHT22;12678;51.336;12.406;2023-12-04T00:46:07;-1.60;99.90
24518;DHT22;12678;51.336;12.406;2023-12-04T00:48:33;-1.60;99.90
24518;DHT22;12678;51.336;12.406;2023-12-04T00:50:59;-1.60;99.90
24518;DHT22;12678;51.336;12.406;2023-12-04T00:53:24;-1.70;99.90
24518;DHT22;12678;51.336;12.406;2023-12-04T00:55:50;-1.60;99.90
24518;DHT22;12678;51.336;12.406;2023-12-04T00:58:15;-1.70;99.90
24518;DHT22;12678;51.336;12.406;2023-12-04T01:00:41;-1.60;99.90
24518;DHT22;12678;51.336;12.406;2023-12-04T01:03:07;-1.60;99.90
24518;DHT22;12678;51.336;12.406;2023-12-04T01:05:32;-1.60;99.90
24518;DHT22;12678;51.336;12.406;2023-12-04T01:07:58;-1.60;99.90
24518;DHT22;12678;51.336;12.406;2023-12-04T01:10:23;-1.50;99.90
24518;DHT22;12678;51.336;12.406;2023-12-04T01:12:49;-1.60;99.90
24518;DHT22;12678;51.336;12.406;2023-12-04T01:15:14;-1.60;99.90
24518;DHT22;12678;51.336;12.406;2023-12-04T01:17:40;-1.60;99.90
24518;DHT22;12678;51.336;12.406;2023-12-04T01:20:07;-1.60;99.90
24518;DHT22;12678;51.336;12.406;2023-12-04T01:22:33;-1.50;99.90
24518;DHT22;12678;51.336;12.406;2023-12-04T01:24:58;-1.50;99.90
24518;DHT22;12678;51.336;12.406;2023-12-04T01:27:24;-1.50;99.90
24518;DHT22;12678;51.336;12.406;2023-12-04T01:29:49;-1.60;99.90
24518;DHT22;12678;51.336;12.406;2023-12-04T01:32:15;-1.50;99.90
24518;DHT22;12678;51.336;12.406;2023-12-04T01:34:40;-1.50;99.90
24518;DHT22;12678;51.336;12.406;2023-12-04T01:37:06;-1.50;99.90
24518;DHT22;12678;51.336;12.406;2023-12-04T01:39:32;-1.50;99.90
24518;DHT22;12678;51.336;12.406;2023-12-04T01:41:57;-1.50;99.90
24518;DHT22;12678;51.336;12.406;2023-12-04T01:44:24;-1.50;99.90
24518;DHT22;12678;51.336;12.406;2023-12-04T01:46:49;-1.40;99.90
24518;DHT22;12678;51.336;12.406;2023-12-04T01:49:15;-1.40;99.90
24518;DHT22;12678;51.336;12.406;2023-12-04T01:51:42;-1.40;99.90
24518;DHT22;12678;51.336;12.406;2023-12-04T01:54:08;-1.40;99.90
24518;DHT22;12678;51.336;12.406;2023-12-04T01:56:34;-1.50;99.90
24518;DHT22;12678;51.336;12.406;2023-12-04T01:59:01;-1.40;99.90
24518;DHT22;12678;51.336;12.406;2023-12-04T02:01:27;-1.40;99.90
24518;DHT22;12678;51.336;12.406;2023-12-04T02:03:54;-1.40;99.90
24518;DHT22;12678;51.336;12.406;2023-12-04T02:06:21;-1.40;99.90
24518;DHT22;12678;51.336;12.406;2023-12-04T02:08:47;-1.50;99.90
24518;DHT22;12678;51.336;12.406;2023-12-04T02:11:13;-1.50;99.90
24518;DHT22;12678;51.336;12.406;2023-12-04T02:13:39;-1.50;99.90
24518;DHT22;12678;51.336;12.406;2023-12-04T02:16:09;-1.40;99.90
24518;DHT22;12678;51.336;12.406;2023-12-04T02:18:35;-1.40;99.90
24518;DHT22;12678;51.336;12.406;2023-12-04T02:21:01;-1.40;99.90
24518;DHT22;12678;51.336;12.406;2023-12-04T02:23:27;-1.30;99.90
24518;DHT22;12678;51.336;12.406;2023-12-04T02:26:01;-1.30;99.90
24518;DHT22;12678;51.336;12.406;2023-12-04T02:28:32;-1.40;99.90
24518;DHT22;12678;51.336;12.406;2023-12-04T02:30:58;-1.30;99.90
24518;DHT22;12678;51.336;12.406;2023-12-04T02:33:25;-1.30;99.90
24518;DHT22;12678;51.336;12.406;2023-12-04T02:35:52;-1.30;99.90
24518;DHT22;12678;51.336;12.406;2023-12-04T02:38:18;-1.30;99.90
24518;DHT22;12678;51.336;12.406;2023-12-04T02:40:44;-1.30;99.90
24518;DHT22;12678;51.336;12.406;2023-12-04T02:43:10;-1.30;99.90
24518;DHT22;12678;51.336;12.406;2023-12-04T02:45:36;-1.30;99.90
24518;DHT22;12678;51.336;12.406;2023-12-04T02:48:01;-1.30;99.90
24518;DHT22;12678;51.336;12.406;2023-12-04T02:50:27;-1.30;99.90
24518;DHT22;12678;51.336;12.406;2023-12-04T02:52:52;-1.40;99.90
24518;DHT22;12678;51.336;12.406;2023-12-04T02:55:18;-1.40;99.90
24518;DHT22;12678;51.336;12.406;2023-12-04T02:57:43;-1.40;99.90
24518;DHT22;12678;51.336;12.406;2023-12-04T03:00:09;-1.40;99.90
24518;DHT22;12678;51.336;12.406;2023-12-04T03:02:35;-1.30;99.90
24518;DHT22;12678;51.336;12.406;2023-12-04T03:05:01;-1.30;99.90
24518;DHT22;12678;51.336;12.406;2023-12-04T03:07:26;-1.30;99.90
24518;DHT22;12678;51.336;12.406;2023-12-04T03:09:52;-1.20;99.90
24518;DHT22;12678;51.336;12.406;2023-12-04T03:12:18;-1.20;99.90
24518;DHT22;12678;51.336;12.406;2023-12-04T03:14:43;-1.20;99.90
24518;DHT22;12678;51.336;12.406;2023-12-04T03:17:09;-1.30;99.90
24518;DHT22;12678;51.336;12.406;2023-12-04T03:19:35;-1.30;99.90
24518;DHT22;12678;51.336;12.406;2023-12-04T03:22:01;-1.30;99.90
24518;DHT22;12678;51.336;12.406;2023-12-04T03:24:27;-1.30;99.90
24518;DHT22;12678;51.336;12.406;2023-12-04T03:26:52;-1.30;99.90
24518;DHT22;12678;51.336;12.406;2023-12-04T03:29:18;-1.30;99.90
24518;DHT22;12678;51.336;12.406;2023-12-04T03:31:43;-1.20;99.90
24518;DHT22;12678;51.336;12.406;2023-12-04T03:34:09;-1.20;99.90
24518;DHT22;12678;51.336;12.406;2023-12-04T03:36:34;-1.30;99.90
24518;DHT22;12678;51.336;12.406;2023-12-04T03:39:00;-1.20;99.90
24518;DHT22;12678;51.336;12.406;2023-12-04T03:41:26;-1.20;99.90
24518;DHT22;12678;51.336;12.406;2023-12-04T03:43:51;-1.10;99.90
24518;DHT22;12678;51.336;12.406;2023-12-04T03:46:17;-1.10;99.90
24518;DHT22;12678;51.336;12.406;2023-12-04T03:48:42;-1.20;99.90
24518;DHT22;12678;51.336;12.406;2023-12-04T03:51:08;-1.10;99.90
24518;DHT22;12678;51.336;12.406;2023-12-04T03:53:33;-1.10;99.90
24518;DHT22;12678;51.336;12.406;2023-12-04T03:55:59;-1.20;99.90
24518;DHT22;12678;51.336;12.406;2023-12-04T03:58:24;-1.10;99.90
24518;DHT22;12678;51.336;12.406;2023-12-04T04:00:50;-1.20;99.90
24518;DHT22;12678;51.336;12.406;2023-12-04T04:03:16;-1.10;99.90
24518;DHT22;12678;51.336;12.406;2023-12-04T04:05:41;-1.10;99.90
24518;DHT22;12678;51.336;12.406;2023-12-04T04:08:07;-1.00;99.90
24518;DHT22;12678;51.336;12.406;2023-12-04T04:10:33;-1.00;99.90
24518;DHT22;12678;51.336;12.406;2023-12-04T04:12:59;-1.00;99.90
24518;DHT22;12678;51.336;12.406;2023-12-04T04:15:25;-0.90;99.90
24518;DHT22;12678;51.336;12.406;2023-12-04T04:17:51;-1.00;99.90
24518;DHT22;12678;51.336;12.406;2023-12-04T04:20:17;-1.00;99.90
24518;DHT22;12678;51.336;12.406;2023-12-04T04:22:43;-1.00;99.90
24518;DHT22;12678;51.336;12.406;2023-12-04T04:25:09;-1.00;99.90
24518;DHT22;12678;51.336;12.406;2023-12-04T04:27:35;-1.00;99.90
24518;DHT22;12678;51.336;12.406;2023-12-04T04:30:01;-1.00;99.90
24518;DHT22;12678;51.336;12.406;2023-12-04T04:32:27;-0.90;99.90
24518;DHT22;12678;51.336;12.406;2023-12-04T04:34:52;-0.90;99.90
24518;DHT22;12678;51.336;12.406;2023-12-04T04:37:19;-0.90;99.90
24518;DHT22;12678;51.336;12.406;2023-12-04T04:39:45;-0.90;99.90
24518;DHT22;12678;51.336;12.406;2023-12-04T04:42:11;-0.90;99.90
24518;DHT22;12678;51.336;12.406;2023-12-04T04:44:36;-0.90;99.90
24518;DHT22;12678;51.336;12.406;2023-12-04T04:47:02;-0.90;99.90
24518;DHT22;12678;51.336;12.406;2023-12-04T04:49:28;-1.00;99.90
24518;DHT22;12678;51.336;12.406;2023-12-04T04:51:53;-1.00;99.90
24518;DHT22;12678;51.336;12.406;2023-12-04T04:54:19;-1.00;99.90
24518;DHT22;12678;51.336;12.406;2023-12-04T04:56:44;-1.00;99.90
24518;DHT22;12678;51.336;12.406;2023-12-04T04:59:10;-1.00;99.90
24518;DHT22;12678;51.336;12.406;2023-12-04T05:01:35;-0.90;99.90
24518;DHT22;12678;51.336;12.406;2023-12-04T05:04:02;-1.00;99.90
24518;DHT22;12678;51.336;12.406;2023-12-04T05:06:28;-1.10;99.90
24518;DHT22;12678;51.336;12.406;2023-12-04T05:08:53;-1.10;99.90
24518;DHT22;12678;51.336;12.406;2023-12-04T05:11:19;-1.10;99.90
24518;DHT22;12678;51.336;12.406;2023-12-04T05:13:45;-1.10;99.90
24518;DHT22;12678;51.336;12.406;2023-12-04T05:16:11;-1.00;99.90
24518;DHT22;12678;51.336;12.406;2023-12-04T05:18:38;-1.00;99.90
24518;DHT22;12678;51.336;12.406;2023-12-04T05:21:03;-1.20;99.90
24518;DHT22;12678;51.336;12.406;2023-12-04T05:23:33;-1.20;99.90
24518;DHT22;12678;51.336;12.406;2023-12-04T05:25:59;-1.20;99.90
24518;DHT22;12678;51.336;12.406;2023-12-04T05:28:25;-1.20;99.90
24518;DHT22;12678;51.336;12.406;2023-12-04T05:30:51;-1.20;99.90
24518;DHT22;12678;51.336;12.406;2023-12-04T05:33:16;-1.10;99.90
24518;DHT22;12678;51.336;12.406;2023-12-04T05:35:42;-1.10;99.90
24518;DHT22;12678;51.336;12.406;2023-12-04T05:38:07;-1.10;99.90
24518;DHT22;12678;51.336;12.406;2023-12-04T05:40:34;-1.10;99.90
24518;DHT22;12678;51.336;12.406;2023-12-04T05:42:59;-1.10;99.90
24518;DHT22;12678;51.336;12.406;2023-12-04T05:45:25;-1.00;99.90
24518;DHT22;12678;51.336;12.406;2023-12-04T05:47:50;-1.10;99.90
24518;DHT22;12678;51.336;12.406;2023-12-04T05:50:16;-1.10;99.90
24518;DHT22;12678;51.336;12.406;2023-12-04T05:52:41;-1.00;99.90
24518;DHT22;12678;51.336;12.406;2023-12-04T05:55:07;-1.00;99.90
24518;DHT22;12678;51.336;12.406;2023-12-04T05:57:33;-0.90;99.90
24518;DHT22;12678;51.336;12.406;2023-12-04T05:59:58;-0.80;99.90
24518;DHT22;12678;51.336;12.406;2023-12-04T06:02:24;-0.80;99.90
24518;DHT22;12678;51.336;12.406;2023-12-04T06:04:50;-0.80;99.90
24518;DHT22;12678;51.336;12.406;2023-12-04T06:07:16;-0.80;99.90
24518;DHT22;12678;51.336;12.406;2023-12-04T06:09:42;-0.70;99.90
24518;DHT22;12678;51.336;12.406;2023-12-04T06:12:07;-0.70;99.90
24518;DHT22;12678;51.336;12.406;2023-12-04T06:14:34;-0.80;99.90
24518;DHT22;12678;51.336;12.406;2023-12-04T06:17:00;-0.80;99.90
24518;DHT22;12678;51.336;12.406;2023-12-04T06:19:27;-0.80;99.90
24518;DHT22;12678;51.336;12.406;2023-12-04T06:21:53;-0.90;99.90
24518;DHT22;12678;51.336;12.406;2023-12-04T06:24:20;-0.90;99.90
24518;DHT22;12678;51.336;12.406;2023-12-04T06:26:48;-0.90;99.90
24518;DHT22;12678;51.336;12.406;2023-12-04T06:29:15;-0.90;99.90
24518;DHT22;12678;51.336;12.406;2023-12-04T06:31:41;-0.90;99.90
24518;DHT22;12678;51.336;12.406;2023-12-04T06:34:07;-0.90;99.90
24518;DHT22;12678;51.336;12.406;2023-12-04T06:36:37;-0.90;99.90
24518;DHT22;12678;51.336;12.406;2023-12-04T06:39:04;-1.00;99.90
24518;DHT22;12678;51.336;12.406;2023-12-04T06:41:34;-1.00;99.90
24518;DHT22;12678;51.336;12.406;2023-12-04T06:43:59;-1.00;99.90
24518;DHT22;12678;51.336;12.406;2023-12-04T06:46:27;-1.00;99.90
24518;DHT22;12678;51.336;12.406;2023-12-04T06:48:55;-1.00;99.90
24518;DHT22;12678;51.336;12.406;2023-12-04T06:51:22;-1.00;99.90
24518;DHT22;12678;51.336;12.406;2023-12-04T06:53:47;-0.90;99.90
24518;DHT22;12678;51.336;12.406;2023-12-04T06:56:13;-1.10;99.90
24518;DHT22;12678;51.336;12.406;2023-12-04T06:58:39;-1.10;99.90
24518;DHT22;12678;51.336;12.406;2023-12-04T07:01:04;-1.20;99.90
24518;DHT22;12678;51.336;12.406;2023-12-04T07:03:30;-1.20;99.90
24518;DHT22;12678;51.336;12.406;2023-12-04T07:05:55;-1.40;99.90
24518;DHT22;12678;51.336;12.406;2023-12-04T07:08:21;-1.30;99.90
24518;DHT22;12678;51.336;12.406;2023-12-04T07:10:46;-1.40;99.90
24518;DHT22;12678;51.336;12.406;2023-12-04T07:13:12;-1.40;99.90
24518;DHT22;12678;51.336;12.406;2023-12-04T07:15:38;-1.30;99.90
24518;DHT22;12678;51.336;12.406;2023-12-04T07:18:04;-1.30;99.90
24518;DHT22;12678;51.336;12.406;2023-12-04T07:20:29;-1.30;99.90
24518;DHT22;12678;51.336;12.406;2023-12-04T07:22:55;-1.30;99.90
24518;DHT22;12678;51.336;12.406;2023-12-04T07:25:23;-1.40;99.90
24518;DHT22;12678;51.336;12.406;2023-12-04T07:27:49;-1.50;99.90
24518;DHT22;12678;51.336;12.406;2023-12-04T07:30:14;-1.50;99.90
24518;DHT22;12678;51.336;12.406;2023-12-04T07:32:40;-1.60;99.90
24518;DHT22;12678;51.336;12.406;2023-12-04T07:35:06;-1.60;99.90
24518;DHT22;12678;51.336;12.406;2023-12-04T07:37:32;-1.50;99.90
24518;DHT22;12678;51.336;12.406;2023-12-04T07:39:58;-1.40;99.90
24518;DHT22;12678;51.336;12.406;2023-12-04T07:42:25;-1.50;99.90
24518;DHT22;12678;51.336;12.406;2023-12-04T07:44:50;-1.40;99.90
24518;DHT22;12678;51.336;12.406;2023-12-04T07:47:16;-1.40;99.90
24518;DHT22;12678;51.336;12.406;2023-12-04T07:49:42;-1.50;99.90
24518;DHT22;12678;51.336;12.406;2023-12-04T07:52:09;-1.40;99.90
24518;DHT22;12678;51.336;12.406;2023-12-04T07:54:36;-1.30;99.90
24518;DHT22;12678;51.336;12.406;2023-12-04T07:57:03;-1.30;99.90
24518;DHT22;12678;51.336;12.406;2023-12-04T07:59:29;-1.30;99.90
24518;DHT22;12678;51.336;12.406;2023-12-04T08:01:55;-1.30;99.90
24518;DHT22;12678;51.336;12.406;2023-12-04T08:04:20;-1.40;99.90
24518;DHT22;12678;51.336;12.406;2023-12-04T08:06:46;-1.30;99.90
24518;DHT22;12678;51.336;12.406;2023-12-04T08:09:12;-1.20;99.90
24518;DHT22;12678;51.336;12.406;2023-12-04T08:11:38;-1.10;99.90
24518;DHT22;12678;51.336;12.406;2023-12-04T08:14:04;-1.10;99.90
24518;DHT22;12678;51.336;12.406;2023-12-04T08:16:29;-1.00;99.90
24518;DHT22;12678;51.336;12.406;2023-12-04T08:18:55;-1.00;99.90
24518;DHT22;12678;51.336;12.406;2023-12-04T08:21:21;-0.90;99.90
24518;DHT22;12678;51.336;12.406;2023-12-04T08:23:46;-0.80;99.90
24518;DHT22;12678;51.336;12.406;2023-12-04T08:26:12;-0.80;99.90
24518;DHT22;12678;51.336;12.406;2023-12-04T08:28:38;-0.80;99.90
24518;DHT22;12678;51.336;12.406;2023-12-04T08:31:07;-0.90;99.90
24518;DHT22;12678;51.336;12.406;2023-12-04T08:33:34;-1.00;99.90
24518;DHT22;12678;51.336;12.406;2023-12-04T08:36:00;-1.00;99.90
24518;DHT22;12678;51.336;12.406;2023-12-04T08:38:26;-0.90;99.90
24518;DHT22;12678;51.336;12.406;2023-12-04T08:40:52;-0.90;99.90
24518;DHT22;12678;51.336;12.406;2023-12-04T08:43:18;-0.90;99.90
24518;DHT22;12678;51.336;12.406;2023-12-04T08:45:45;-0.80;99.90
24518;DHT22;12678;51.336;12.406;2023-12-04T08:48:10;-0.80;99.90
24518;DHT22;12678;51.336;12.406;2023-12-04T08:50:36;-0.90;99.90
24518;DHT22;12678;51.336;12.406;2023-12-04T08:53:04;-0.80;99.90
24518;DHT22;12678;51.336;12.406;2023-12-04T08:55:30;-0.80;99.90
24518;DHT22;12678;51.336;12.406;2023-12-04T08:57:56;-0.80;99.90
24518;DHT22;12678;51.336;12.406;2023-12-04T09:00:21;-0.60;99.90
24518;DHT22;12678;51.336;12.406;2023-12-04T09:02:48;-0.60;99.90
24518;DHT22;12678;51.336;12.406;2023-12-04T09:05:14;-0.60;99.90
24518;DHT22;12678;51.336;12.406;2023-12-04T09:07:39;-0.50;99.90
24518;DHT22;12678;51.336;12.406;2023-12-04T09:10:05;-0.50;99.90
24518;DHT22;12678;51.336;12.406;2023-12-04T09:12:31;-0.50;99.90
24518;DHT22;12678;51.336;12.406;2023-12-04T09:14:57;-0.40;99.90
24518;DHT22;12678;51.336;12.406;2023-12-04T09:17:22;-0.30;99.90
24518;DHT22;12678;51.336;12.406;2023-12-04T09:19:48;-0.20;99.90
24518;DHT22;12678;51.336;12.406;2023-12-04T09:22:14;-0.20;99.90
24518;DHT22;12678;51.336;12.406;2023-12-04T09:24:39;-0.10;99.90
24518;DHT22;12678;51.336;12.406;2023-12-04T09:27:05;-0.10;99.90
24518;DHT22;12678;51.336;12.406;2023-12-04T09:29:34;-0.10;99.90
24518;DHT22;12678;51.336;12.406;2023-12-04T09:31:59;-0.10;99.90
24518;DHT22;12678;51.336;12.406;2023-12-04T09:34:25;0.00;99.90
24518;DHT22;12678;51.336;12.406;2023-12-04T09:36:51;0.00;99.90
24518;DHT22;12678;51.336;12.406;2023-12-04T09:39:16;0.00;99.90
24518;DHT22;12678;51.336;12.406;2023-12-04T09:41:43;0.10;99.90
24518;DHT22;12678;51.336;12.406;2023-12-04T09:44:09;0.10;99.90
24518;DHT22;12678;51.336;12.406;2023-12-04T09:46:35;0.00;99.90
24518;DHT22;12678;51.336;12.406;2023-12-04T09:49:02;0.10;99.90
24518;DHT22;12678;51.336;12.406;2023-12-04T09:51:28;0.30;99.90
24518;DHT22;12678;51.336;12.406;2023-12-04T09:53:54;0.30;99.90
24518;DHT22;12678;51.336;12.406;2023-12-04T09:56:23;0.30;99.90
24518;DHT22;12678;51.336;12.406;2023-12-04T09:58:55;0.30;99.90
24518;DHT22;12678;51.336;12.406;2023-12-04T10:01:23;0.40;99.90
24518;DHT22;12678;51.336;12.406;2023-12-04T10:03:50;0.50;99.90
24518;DHT22;12678;51.336;12.406;2023-12-04T10:06:16;0.60;99.90
24518;DHT22;12678;51.336;12.406;2023-12-04T10:08:45;0.60;99.90
24518;DHT22;12678;51.336;12.406;2023-12-04T10:11:12;0.40;99.90
24518;DHT22;12678;51.336;12.406;2023-12-04T10:13:38;0.50;99.90
24518;DHT22;12678;51.336;12.406;2023-12-04T10:16:03;0.60;99.90
24518;DHT22;12678;51.336;12.406;2023-12-04T10:18:30;0.50;99.90
24518;DHT22;12678;51.336;12.406;2023-12-04T10:20:58;0.40;99.90
24518;DHT22;12678;51.336;12.406;2023-12-04T10:23:41;0.50;99.90
24518;DHT22;12678;51.336;12.406;2023-12-04T10:26:07;0.50;99.90
24518;DHT22;12678;51.336;12.406;2023-12-04T10:28:34;0.60;99.90
24518;DHT22;12678;51.336;12.406;2023-12-04T10:31:00;0.80;99.90
24518;DHT22;12678;51.336;12.406;2023-12-04T10:33:25;0.90;99.90
24518;DHT22;12678;51.336;12.406;2023-12-04T10:35:52;0.90;99.90
24518;DHT22;12678;51.336;12.406;2023-12-04T10:38:18;1.00;99.90
24518;DHT22;12678;51.336;12.406;2023-12-04T10:40:44;1.10;99.90
24518;DHT22;12678;51.336;12.406;2023-12-04T10:43:17;1.00;99.90
24518;DHT22;12678;51.336;12.406;2023-12-04T10:45:43;1.00;99.90
24518;DHT22;12678;51.336;12.406;2023-12-04T10:48:10;0.90;99.90
24518;DHT22;12678;51.336;12.406;2023-12-04T10:50:46;1.00;99.90
24518;DHT22;12678;51.336;12.406;2023-12-04T10:53:13;0.80;99.90
24518;DHT22;12678;51.336;12.406;2023-12-04T10:55:40;0.70;99.90
24518;DHT22;12678;51.336;12.406;2023-12-04T10:58:14;0.80;99.90
24518;DHT22;12678;51.336;12.406;2023-12-04T11:00:45;0.90;99.90
24518;DHT22;12678;51.336;12.406;2023-12-04T11:03:24;1.00;99.90
24518;DHT22;12678;51.336;12.406;2023-12-04T11:05:56;1.10;99.90
24518;DHT22;12678;51.336;12.406;2023-12-04T11:08:25;1.10;99.90
24518;DHT22;12678;51.336;12.406;2023-12-04T11:10:58;1.20;99.90
24518;DHT22;12678;51.336;12.406;2023-12-04T11:13:28;1.00;99.90
24518;DHT22;12678;51.336;12.406;2023-12-04T11:16:01;1.00;99.90
24518;DHT22;12678;51.336;12.406;2023-12-04T11:18:30;1.00;99.90
24518;DHT22;12678;51.336;12.406;2023-12-04T11:21:04;1.00;99.90
24518;DHT22;12678;51.336;12.406;2023-12-04T11:23:32;1.10;99.90
24518;DHT22;12678;51.336;12.406;2023-12-04T11:25:58;1.20;99.90
24518;DHT22;12678;51.336;12.406;2023-12-04T11:28:27;1.20;99.90
24518;DHT22;12678;51.336;12.406;2023-12-04T11:30:54;1.30;99.90
24518;DHT22;12678;51.336;12.406;2023-12-04T11:33:21;1.30;99.90
24518;DHT22;12678;51.336;12.406;2023-12-04T11:35:49;1.20;99.90
24518;DHT22;12678;51.336;12.406;2023-12-04T11:38:17;1.10;99.90
24518;DHT22;12678;51.336;12.406;2023-12-04T11:40:42;1.20;99.90
24518;DHT22;12678;51.336;12.406;2023-12-04T11:43:28;1.20;99.90
24518;DHT22;12678;51.336;12.406;2023-12-04T11:46:08;1.20;99.90
24518;DHT22;12678;51.336;12.406;2023-12-04T11:48:41;1.10;99.90
24518;DHT22;12678;51.336;12.406;2023-12-04T11:51:08;1.30;99.90
24518;DHT22;12678;51.336;12.406;2023-12-04T11:53:39;1.40;99.90
24518;DHT22;12678;51.336;12.406;2023-12-04T11:56:10;1.50;99.90
24518;DHT22;12678;51.336;12.406;2023-12-04T11:58:44;1.50;99.90
24518;DHT22;12678;51.336;12.406;2023-12-04T12:01:10;1.60;99.90
24518;DHT22;12678;51.336;12.406;2023-12-04T12:03:36;1.60;99.90
24518;DHT22;12678;51.336;12.406;2023-12-04T12:06:01;1.60;99.90
24518;DHT22;12678;51.336;12.406;2023-12-04T12:08:28;1.60;99.90
24518;DHT22;12678;51.336;12.406;2023-12-04T12:10:54;1.70;99.90
24518;DHT22;12678;51.336;12.406;2023-12-04T12:13:20;1.70;99.90
24518;DHT22;12678;51.336;12.406;2023-12-04T12:15:50;1.80;99.90
24518;DHT22;12678;51.336;12.406;2023-12-04T12:18:16;1.80;99.90
24518;DHT22;12678;51.336;12.406;2023-12-04T12:20:42;1.80;99.90
24518;DHT22;12678;51.336;12.406;2023-12-04T12:23:08;1.80;99.90
24518;DHT22;12678;51.336;12.406;2023-12-04T12:25:34;1.90;99.90
24518;DHT22;12678;51.336;12.406;2023-12-04T12:28:04;1.90;99.90
24518;DHT22;12678;51.336;12.406;2023-12-04T12:30:30;2.00;99.90
24518;DHT22;12678;51.336;12.406;2023-12-04T12:32:57;2.00;99.90
24518;DHT22;12678;51.336;12.406;2023-12-04T12:35:23;2.00;99.90
24518;DHT22;12678;51.336;12.406;2023-12-04T12:37:50;2.00;99.90
24518;DHT22;12678;51.336;12.406;2023-12-04T12:40:23;2.00;99.90
24518;DHT22;12678;51.336;12.406;2023-12-04T12:42:48;1.90;99.90
24518;DHT22;12678;51.336;12.406;2023-12-04T12:45:14;1.80;99.90
24518;DHT22;12678;51.336;12.406;2023-12-04T12:47:41;1.70;99.90
24518;DHT22;12678;51.336;12.406;2023-12-04T12:50:08;1.70;99.90
24518;DHT22;12678;51.336;12.406;2023-12-04T12:52:37;1.60;99.90
24518;DHT22;12678;51.336;12.406;2023-12-04T12:55:03;1.70;99.90
24518;DHT22;12678;51.336;12.406;2023-12-04T12:57:30;1.70;99.90
24518;DHT22;12678;51.336;12.406;2023-12-04T12:59:56;1.70;99.90
24518;DHT22;12678;51.336;12.406;2023-12-04T13:02:22;1.80;99.90
24518;DHT22;12678;51.336;12.406;2023-12-04T13:04:47;1.90;99.90
24518;DHT22;12678;51.336;12.406;2023-12-04T13:07:13;1.90;99.90
24518;DHT22;12678;51.336;12.406;2023-12-04T13:09:39;1.90;99.90
24518;DHT22;12678;51.336;12.406;2023-12-04T13:12:06;1.90;99.90
24518;DHT22;12678;51.336;12.406;2023-12-04T13:14:34;2.00;99.90
24518;DHT22;12678;51.336;12.406;2023-12-04T13:17:01;1.90;99.90
24518;DHT22;12678;51.336;12.406;2023-12-04T13:19:27;1.80;99.90
24518;DHT22;12678;51.336;12.406;2023-12-04T13:21:52;1.60;99.90
24518;DHT22;12678;51.336;12.406;2023-12-04T13:24:18;1.60;99.90
24518;DHT22;12678;51.336;12.406;2023-12-04T13:26:44;1.60;99.90
24518;DHT22;12678;51.336;12.406;2023-12-04T13:29:11;1.60;99.90
24518;DHT22;12678;51.336;12.406;2023-12-04T13:31:36;1.70;99.90
24518;DHT22;12678;51.336;12.406;2023-12-04T13:34:03;1.60;99.90
24518;DHT22;12678;51.336;12.406;2023-12-04T13:36:33;1.60;99.90
24518;DHT22;12678;51.336;12.406;2023-12-04T13:38:59;1.60;99.90
24518;DHT22;12678;51.336;12.406;2023-12-04T13:41:25;1.60;99.90
24518;DHT22;12678;51.336;12.406;2023-12-04T13:44:10;1.60;99.90
24518;DHT22;12678;51.336;12.406;2023-12-04T13:46:39;1.50;99.90
24518;DHT22;12678;51.336;12.406;2023-12-04T13:49:05;1.50;99.90
24518;DHT22;12678;51.336;12.406;2023-12-04T13:51:30;1.50;99.90
24518;DHT22;12678;51.336;12.406;2023-12-04T13:53:56;1.50;99.90
24518;DHT22;12678;51.336;12.406;2023-12-04T13:56:27;1.50;99.90
24518;DHT22;12678;51.336;12.406;2023-12-04T13:58:52;1.50;99.90
24518;DHT22;12678;51.336;12.406;2023-12-04T14:01:26;1.60;99.90
24518;DHT22;12678;51.336;12.406;2023-12-04T14:03:56;1.50;99.90
24518;DHT22;12678;51.336;12.406;2023-12-04T14:06:28;1.50;99.90
24518;DHT22;12678;51.336;12.406;2023-12-04T14:08:53;1.50;99.90
24518;DHT22;12678;51.336;12.406;2023-12-04T14:11:19;1.40;99.90
24518;DHT22;12678;51.336;12.406;2023-12-04T14:13:44;1.40;99.90
24518;DHT22;12678;51.336;12.406;2023-12-04T14:16:10;1.40;99.90
24518;DHT22;12678;51.336;12.406;2023-12-04T14:18:36;1.40;99.90
24518;DHT22;12678;51.336;12.406;2023-12-04T14:21:03;1.40;99.90
24518;DHT22;12678;51.336;12.406;2023-12-04T14:23:28;1.50;99.90
24518;DHT22;12678;51.336;12.406;2023-12-04T14:25:54;1.50;99.90
24518;DHT22;12678;51.336;12.406;2023-12-04T14:28:20;1.50;99.90
24518;DHT22;12678;51.336;12.406;2023-12-04T14:30:45;1.50;99.90
24518;DHT22;12678;51.336;12.406;2023-12-04T14:33:11;1.50;99.90
24518;DHT22;12678;51.336;12.406;2023-12-04T14:35:36;1.50;99.90
24518;DHT22;12678;51.336;12.406;2023-12-04T14:38:03;1.50;99.90
24518;DHT22;12678;51.336;12.406;2023-12-04T14:40:29;1.60;99.90
24518;DHT22;12678;51.336;12.406;2023-12-04T14:42:55;1.60;99.90
24518;DHT22;12678;51.336;12.406;2023-12-04T14:45:23;1.60;99.90
24518;DHT22;12678;51.336;12.406;2023-12-04T14:47:48;1.60;99.90
24518;DHT22;12678;51.336;12.406;2023-12-04T14:50:16;1.60;99.90
24518;DHT22;12678;51.336;12.406;2023-12-04T14:52:42;1.60;99.90
24518;DHT22;12678;51.336;12.406;2023-12-04T14:55:15;1.60;99.90
24518;DHT22;12678;51.336;12.406;2023-12-04T14:57:53;1.70;99.90
24518;DHT22;12678;51.336;12.406;2023-12-04T15:00:37;1.60;99.90
24518;DHT22;12678;51.336;12.406;2023-12-04T15:03:12;1.50;99.90
24518;DHT22;12678;51.336;12.406;2023-12-04T15:05:56;1.50;99.90
24518;DHT22;12678;51.336;12.406;2023-12-04T15:08:36;1.40;99.90
24518;DHT22;12678;51.336;12.406;2023-12-04T15:11:14;1.50;99.90
24518;DHT22;12678;51.336;12.406;2023-12-04T15:14:07;1.50;99.90
24518;DHT22;12678;51.336;12.406;2023-12-04T15:16:56;1.60;99.90
24518;DHT22;12678;51.336;12.406;2023-12-04T15:19:37;1.60;99.90